Чертовицкое

Карта отелей и гостиниц, располагающихся рядом с аэропортом Чертовицкое :

Чертовицкое
Воронеж
Воронежская область 51° 48' 54.1188" N, 39° 13' 46.8012" E
Код аэродрома ИКАО
UUOO
Код аэродрома RU
УУОО
Координаты
N51.81503° E039.22967°
Превышение над уровнем моря
157
Основная полоса
12/30
Курс магнитный
121,5/301,5
Длина основной ВПП
2304
Ширина основной ВПП
49
Покрытие основной ВПП
Твёрдое (бетон)
Освещение ВПП
Постоянное
Тип: 
Аэродром
Класс аэродрома: 
Международный
Принадлежность: 
ГА
Статус: 
Действующий
Страна: 
Россия
Регион: 
Воронежская область
Город: 
Воронеж
Дополнительная информация: 
Воронежская область, Россия. Нкр.=(500)м.
Погода: 

Авиационная погода в Воронеже

Регион: 
Погода METAR: 
UUOO 171530Z 33003MPS 9999 -SHRA BKN///CB 12/07 Q1016 R30/290160 NOSIG RMK QFE748
Время наблюдения
2021-09-17T15:30:00Z
Температура C
12.0
Точка росы
7.0
Направление ветра
330
Скорость ветра (узлы)
6
Метео видимость
6.21
Явления погоды
-SHRA
Условия полета
Аэропорт подробнее: 

Найти трансфер

С помощью этой формы Вы можете найти трансфер из аэропорта Чертовицкое в город, аэропорт или вокзал:

Карта места

Javascript is required to view this map.

Погода в аэропортах:

Авиационная погода в Храброво

Регион: 
Погода METAR: 
UMKK 171530Z 08005MPS 5000 -DZ BR OVC004 13/13 Q1010 R06/95D NOSIG RMK QBB120 OBST OBSC QFE756/1008
Время наблюдения
2021-09-17T15:30:00Z
Температура C
13.0
Точка росы
13.0
Направление ветра
80
Скорость ветра (узлы)
10
Метео видимость
3.11
Явления погоды
-DZ BR
Условия полета
LIFR
Аэропорт подробнее: 

Авиационная погода в Перми

Регион: 
Погода METAR: 
USPP 171530Z 30002MPS 9999 -RA BKN038 06/06 Q1009 R21/290150 TEMPO 3000 -RA BKN005 RMK QFE746
Время наблюдения
2021-09-17T15:30:00Z
Температура C
6.0
Точка росы
6.0
Направление ветра
300
Скорость ветра (узлы)
4
Метео видимость
6.21
Явления погоды
-RA
Условия полета
VFR
Аэропорт подробнее: 

Авиационная погода в Тбилиси

Регион: 
Погода METAR: 
UGTB 171530Z 33017KT 9999 -SHRA SCT055CB 18/15 Q1015 R31L/19//60 NOSIG
Время наблюдения
2021-09-17T15:30:00Z
Температура C
18.0
Точка росы
15.0
Направление ветра
330
Скорость ветра (узлы)
17
Метео видимость
6.21
Явления погоды
-SHRA
Условия полета
VFR

Авиационная погода в Самаре

Регион: 
Погода METAR: 
UWWW 171530Z 29002MPS 270V330 9999 -RA NSC 07/02 Q1015 R33/190055 NOSIG RMK QFE751/1001
Время наблюдения
2021-09-17T15:30:00Z
Температура C
7.0
Точка росы
2.0
Направление ветра
290
Скорость ветра (узлы)
4
Метео видимость
6.21
Явления погоды
-RA
Условия полета
VFR
Аэропорт подробнее: